sensor_id;sensor_type;location;lat;lon;timestamp;pressure;altitude;pressure_sealevel;temperature;humidity
64711;BME280;51139;45.626;6.850;2022-10-23T00:00:56;82330.44;;;11.34;47.84
64711;BME280;51139;45.626;6.850;2022-10-23T00:03:21;82323.31;;;11.37;47.92
64711;BME280;51139;45.626;6.850;2022-10-23T00:05:46;82323.38;;;11.47;47.89
64711;BME280;51139;45.626;6.850;2022-10-23T00:08:12;82329.22;;;11.45;48.20
64711;BME280;51139;45.626;6.850;2022-10-23T00:10:40;82326.19;;;11.49;47.92
64711;BME280;51139;45.626;6.850;2022-10-23T00:13:06;82323.03;;;11.60;46.78
64711;BME280;51139;45.626;6.850;2022-10-23T00:15:34;82323.22;;;11.45;47.61
64711;BME280;51139;45.626;6.850;2022-10-23T00:17:59;82319.63;;;11.50;47.54
64711;BME280;51139;45.626;6.850;2022-10-23T00:20:24;82321.53;;;11.39;48.21
64711;BME280;51139;45.626;6.850;2022-10-23T00:22:50;82314.59;;;11.27;49.16
64711;BME280;51139;45.626;6.850;2022-10-23T00:25:15;82310.06;;;11.37;48.01
64711;BME280;51139;45.626;6.850;2022-10-23T00:27:42;82321.34;;;11.55;47.46
64711;BME280;51139;45.626;6.850;2022-10-23T00:30:08;82322.28;;;11.50;47.60
64711;BME280;51139;45.626;6.850;2022-10-23T00:32:34;82315.78;;;11.88;45.73
64711;BME280;51139;45.626;6.850;2022-10-23T00:34:59;82314.66;;;11.36;47.81
64711;BME280;51139;45.626;6.850;2022-10-23T00:37:24;82317.78;;;11.43;47.59
64711;BME280;51139;45.626;6.850;2022-10-23T00:39:50;82316.44;;;11.51;47.14
64711;BME280;51139;45.626;6.850;2022-10-23T00:42:16;82303.63;;;11.58;46.82
64711;BME280;51139;45.626;6.850;2022-10-23T00:47:07;82312.94;;;11.49;47.48
64711;BME280;51139;45.626;6.850;2022-10-23T00:49:33;82299.16;;;11.60;47.08
64711;BME280;51139;45.626;6.850;2022-10-23T00:52:01;82303.50;;;11.38;47.72
64711;BME280;51139;45.626;6.850;2022-10-23T00:54:32;82309.97;;;11.45;47.49
64711;BME280;51139;45.626;6.850;2022-10-23T00:57:00;82301.47;;;11.74;46.31
64711;BME280;51139;45.626;6.850;2022-10-23T00:59:27;82299.28;;;11.52;47.17
64711;BME280;51139;45.626;6.850;2022-10-23T01:01:53;82301.41;;;11.36;48.58
64711;BME280;51139;45.626;6.850;2022-10-23T01:04:18;82299.53;;;11.74;45.84
64711;BME280;51139;45.626;6.850;2022-10-23T01:09:17;82307.16;;;11.43;47.24
64711;BME280;51139;45.626;6.850;2022-10-23T01:11:47;82300.63;;;11.71;46.98
64711;BME280;51139;45.626;6.850;2022-10-23T01:14:31;82297.09;;;11.68;46.62
64711;BME280;51139;45.626;6.850;2022-10-23T01:19:45;82288.03;;;11.44;47.26
64711;BME280;51139;45.626;6.850;2022-10-23T01:28:09;82297.56;;;10.85;50.53
64711;BME280;51139;45.626;6.850;2022-10-23T01:30:39;82297.06;;;11.59;46.47
64711;BME280;51139;45.626;6.850;2022-10-23T01:33:11;82291.19;;;11.88;45.93
64711;BME280;51139;45.626;6.850;2022-10-23T01:36:01;82292.69;;;11.81;46.16
64711;BME280;51139;45.626;6.850;2022-10-23T01:38:53;82288.25;;;11.29;48.92
64711;BME280;51139;45.626;6.850;2022-10-23T01:41:35;82301.22;;;11.52;47.44
64711;BME280;51139;45.626;6.850;2022-10-23T01:46:29;82296.88;;;10.84;51.00
64711;BME280;51139;45.626;6.850;2022-10-23T01:48:56;82305.97;;;10.56;52.10
64711;BME280;51139;45.626;6.850;2022-10-23T01:51:26;82297.91;;;10.28;53.27
64711;BME280;51139;45.626;6.850;2022-10-23T01:53:56;82293.78;;;10.35;53.03
64711;BME280;51139;45.626;6.850;2022-10-23T01:56:27;82288.06;;;10.46;52.67
64711;BME280;51139;45.626;6.850;2022-10-23T01:58:56;82285.56;;;10.48;52.14
64711;BME280;51139;45.626;6.850;2022-10-23T02:01:26;82281.28;;;10.71;51.13
64711;BME280;51139;45.626;6.850;2022-10-23T02:03:54;82279.66;;;10.75;50.76
64711;BME280;51139;45.626;6.850;2022-10-23T02:06:21;82286.03;;;11.07;49.08
64711;BME280;51139;45.626;6.850;2022-10-23T02:08:46;82286.25;;;11.47;47.09
64711;BME280;51139;45.626;6.850;2022-10-23T02:11:14;82282.13;;;10.91;50.14
64711;BME280;51139;45.626;6.850;2022-10-23T02:22:05;82273.38;;;10.98;49.76
64711;BME280;51139;45.626;6.850;2022-10-23T02:24:36;82269.94;;;11.23;48.82
64711;BME280;51139;45.626;6.850;2022-10-23T02:27:10;82281.53;;;11.28;48.88
64711;BME280;51139;45.626;6.850;2022-10-23T02:29:45;82273.38;;;11.16;50.02
64711;BME280;51139;45.626;6.850;2022-10-23T02:32:13;82269.09;;;11.03;50.27
64711;BME280;51139;45.626;6.850;2022-10-23T02:34:40;82270.34;;;11.02;51.14
64711;BME280;51139;45.626;6.850;2022-10-23T02:37:05;82272.63;;;11.33;48.55
64711;BME280;51139;45.626;6.850;2022-10-23T02:39:31;82271.06;;;10.85;51.72
64711;BME280;51139;45.626;6.850;2022-10-23T02:42:06;82263.97;;;10.87;51.18
64711;BME280;51139;45.626;6.850;2022-10-23T02:58:31;82246.88;;;10.98;49.26
64711;BME280;51139;45.626;6.850;2022-10-23T03:01:18;82241.59;;;10.98;50.38
64711;BME280;51139;45.626;6.850;2022-10-23T03:03:59;82242.63;;;10.85;50.38
64711;BME280;51139;45.626;6.850;2022-10-23T03:06:27;82251.59;;;10.72;51.23
64711;BME280;51139;45.626;6.850;2022-10-23T03:08:57;82250.91;;;11.17;48.70
64711;BME280;51139;45.626;6.850;2022-10-23T03:11:22;82247.69;;;10.73;51.30
64711;BME280;51139;45.626;6.850;2022-10-23T03:13:48;82244.16;;;10.35;52.63
64711;BME280;51139;45.626;6.850;2022-10-23T03:16:13;82242.47;;;10.30;53.35
64711;BME280;51139;45.626;6.850;2022-10-23T03:18:38;82242.00;;;10.42;52.18
64711;BME280;51139;45.626;6.850;2022-10-23T03:21:04;82240.06;;;10.60;51.42
64711;BME280;51139;45.626;6.850;2022-10-23T03:23:29;82238.63;;;10.94;49.43
64711;BME280;51139;45.626;6.850;2022-10-23T03:25:54;82247.53;;;10.71;51.44
64711;BME280;51139;45.626;6.850;2022-10-23T03:28:20;82246.94;;;10.63;50.90
64711;BME280;51139;45.626;6.850;2022-10-23T03:30:46;82239.44;;;10.69;51.15
64711;BME280;51139;45.626;6.850;2022-10-23T03:33:11;82238.00;;;11.03;48.84
64711;BME280;51139;45.626;6.850;2022-10-23T03:35:37;82247.88;;;11.20;47.74
64711;BME280;51139;45.626;6.850;2022-10-23T03:38:02;82249.47;;;10.88;50.07
64711;BME280;51139;45.626;6.850;2022-10-23T03:40:28;82253.00;;;10.73;50.44
64711;BME280;51139;45.626;6.850;2022-10-23T03:42:53;82247.09;;;10.65;50.83
64711;BME280;51139;45.626;6.850;2022-10-23T03:45:19;82249.03;;;10.64;50.93
64711;BME280;51139;45.626;6.850;2022-10-23T03:47:44;82244.44;;;10.65;51.39
64711;BME280;51139;45.626;6.850;2022-10-23T03:50:10;82254.03;;;10.78;50.92
64711;BME280;51139;45.626;6.850;2022-10-23T03:52:36;82253.47;;;10.79;50.98
64711;BME280;51139;45.626;6.850;2022-10-23T03:55:01;82252.16;;;10.71;51.51
64711;BME280;51139;45.626;6.850;2022-10-23T03:57:27;82254.81;;;10.71;51.13
64711;BME280;51139;45.626;6.850;2022-10-23T03:59:52;82251.91;;;10.76;51.60
64711;BME280;51139;45.626;6.850;2022-10-23T04:02:17;82252.50;;;10.85;51.94
64711;BME280;51139;45.626;6.850;2022-10-23T04:04:43;82257.22;;;10.59;51.92
64711;BME280;51139;45.626;6.850;2022-10-23T04:07:08;82252.63;;;10.77;50.32
64711;BME280;51139;45.626;6.850;2022-10-23T04:09:34;82255.13;;;11.02;50.26
64711;BME280;51139;45.626;6.850;2022-10-23T04:11:59;82262.66;;;10.78;51.81
64711;BME280;51139;45.626;6.850;2022-10-23T04:14:25;82262.47;;;10.94;50.40
64711;BME280;51139;45.626;6.850;2022-10-23T04:16:50;82265.84;;;11.39;47.29
64711;BME280;51139;45.626;6.850;2022-10-23T04:19:16;82271.28;;;10.97;51.12
64711;BME280;51139;45.626;6.850;2022-10-23T04:21:42;82271.97;;;11.15;49.90
64711;BME280;51139;45.626;6.850;2022-10-23T04:24:07;82274.75;;;10.89;51.02
64711;BME280;51139;45.626;6.850;2022-10-23T04:26:33;82280.09;;;10.82;52.11
64711;BME280;51139;45.626;6.850;2022-10-23T04:28:58;82279.50;;;10.73;52.17
64711;BME280;51139;45.626;6.850;2022-10-23T04:31:23;82284.63;;;11.06;48.96
64711;BME280;51139;45.626;6.850;2022-10-23T04:33:49;82284.28;;;11.20;48.45
64711;BME280;51139;45.626;6.850;2022-10-23T04:36:14;82279.06;;;11.12;49.62
64711;BME280;51139;45.626;6.850;2022-10-23T04:38:39;82278.03;;;11.25;48.40
64711;BME280;51139;45.626;6.850;2022-10-23T04:41:05;82285.03;;;11.30;47.90
64711;BME280;51139;45.626;6.850;2022-10-23T04:43:30;82291.63;;;11.12;50.10
64711;BME280;51139;45.626;6.850;2022-10-23T04:45:55;82289.22;;;10.88;51.25
64711;BME280;51139;45.626;6.850;2022-10-23T04:48:21;82286.97;;;10.85;52.00
64711;BME280;51139;45.626;6.850;2022-10-23T04:51:00;82294.69;;;10.90;50.63
64711;BME280;51139;45.626;6.850;2022-10-23T04:53:27;82295.94;;;10.89;50.72
64711;BME280;51139;45.626;6.850;2022-10-23T04:55:55;82287.44;;;10.73;51.56
64711;BME280;51139;45.626;6.850;2022-10-23T04:58:21;82272.28;;;11.01;48.35
64711;BME280;51139;45.626;6.850;2022-10-23T05:00:46;82280.78;;;11.17;48.72
64711;BME280;51139;45.626;6.850;2022-10-23T05:03:13;82277.97;;;11.15;48.64
64711;BME280;51139;45.626;6.850;2022-10-23T05:05:39;82273.03;;;11.29;48.25
64711;BME280;51139;45.626;6.850;2022-10-23T05:08:05;82273.38;;;11.43;45.52
64711;BME280;51139;45.626;6.850;2022-10-23T05:10:30;82277.66;;;11.56;45.87
64711;BME280;51139;45.626;6.850;2022-10-23T05:12:56;82277.25;;;11.60;44.56
64711;BME280;51139;45.626;6.850;2022-10-23T05:15:21;82271.97;;;11.70;44.24
64711;BME280;51139;45.626;6.850;2022-10-23T05:17:49;82271.44;;;11.71;43.73
64711;BME280;51139;45.626;6.850;2022-10-23T05:20:20;82269.03;;;11.65;44.21
64711;BME280;51139;45.626;6.850;2022-10-23T05:22:47;82262.88;;;11.63;44.61
64711;BME280;51139;45.626;6.850;2022-10-23T05:25:16;82255.97;;;11.50;45.01
64711;BME280;51139;45.626;6.850;2022-10-23T05:27:41;82253.25;;;11.67;44.75
64711;BME280;51139;45.626;6.850;2022-10-23T05:30:07;82275.22;;;11.78;43.76
64711;BME280;51139;45.626;6.850;2022-10-23T05:32:33;82272.94;;;11.64;45.70
64711;BME280;51139;45.626;6.850;2022-10-23T05:35:00;82264.47;;;11.76;44.03
64711;BME280;51139;45.626;6.850;2022-10-23T05:37:27;82268.28;;;11.55;45.41
64711;BME280;51139;45.626;6.850;2022-10-23T05:39:52;82269.25;;;11.50;45.47
64711;BME280;51139;45.626;6.850;2022-10-23T05:42:18;82278.84;;;11.45;46.18
64711;BME280;51139;45.626;6.850;2022-10-23T05:44:43;82275.94;;;11.51;46.09
64711;BME280;51139;45.626;6.850;2022-10-23T05:47:09;82271.38;;;11.61;43.46
64711;BME280;51139;45.626;6.850;2022-10-23T05:49:34;82269.75;;;11.38;46.64
64711;BME280;51139;45.626;6.850;2022-10-23T05:51:59;82269.28;;;11.32;47.16
64711;BME280;51139;45.626;6.850;2022-10-23T05:54:25;82274.13;;;11.26;47.21
64711;BME280;51139;45.626;6.850;2022-10-23T05:56:50;82271.34;;;11.24;47.53
64711;BME280;51139;45.626;6.850;2022-10-23T05:59:16;82278.66;;;11.33;46.88
64711;BME280;51139;45.626;6.850;2022-10-23T06:01:41;82273.03;;;11.29;47.25
64711;BME280;51139;45.626;6.850;2022-10-23T06:04:07;82276.00;;;11.33;46.73
64711;BME280;51139;45.626;6.850;2022-10-23T06:06:33;82277.72;;;11.48;45.24
64711;BME280;51139;45.626;6.850;2022-10-23T06:08:58;82281.75;;;11.39;46.77
64711;BME280;51139;45.626;6.850;2022-10-23T06:11:24;82278.22;;;11.37;46.23
64711;BME280;51139;45.626;6.850;2022-10-23T06:13:49;82276.63;;;11.24;46.98
64711;BME280;51139;45.626;6.850;2022-10-23T06:16:19;82284.03;;;11.26;47.87
64711;BME280;51139;45.626;6.850;2022-10-23T06:18:45;82274.13;;;11.26;47.86
64711;BME280;51139;45.626;6.850;2022-10-23T06:21:11;82277.44;;;11.17;48.86
64711;BME280;51139;45.626;6.850;2022-10-23T06:23:38;82275.09;;;11.21;48.37
64711;BME280;51139;45.626;6.850;2022-10-23T06:26:04;82286.00;;;11.25;47.88
64711;BME280;51139;45.626;6.850;2022-10-23T06:28:30;82284.41;;;11.39;46.80
64711;BME280;51139;45.626;6.850;2022-10-23T06:30:55;82295.38;;;11.53;46.23
64711;BME280;51139;45.626;6.850;2022-10-23T06:33:21;82295.03;;;11.67;45.49
64711;BME280;51139;45.626;6.850;2022-10-23T06:35:46;82290.22;;;11.56;45.96
64711;BME280;51139;45.626;6.850;2022-10-23T06:38:11;82282.56;;;11.60;45.92
64711;BME280;51139;45.626;6.850;2022-10-23T06:40:37;82286.75;;;11.63;44.75
64711;BME280;51139;45.626;6.850;2022-10-23T08:48:25;82298.69;;;15.97;39.88
64711;BME280;51139;45.626;6.850;2022-10-23T08:50:55;82287.00;;;16.26;37.98
64711;BME280;51139;45.626;6.850;2022-10-23T08:53:35;82300.41;;;15.93;42.80
64711;BME280;51139;45.626;6.850;2022-10-23T08:56:11;82289.22;;;16.30;41.64
64711;BME280;51139;45.626;6.850;2022-10-23T08:58:42;82294.34;;;16.38;41.70
64711;BME280;51139;45.626;6.850;2022-10-23T09:01:39;82298.88;;;16.35;39.07
64711;BME280;51139;45.626;6.850;2022-10-23T09:04:10;82281.66;;;16.38;38.22
64711;BME280;51139;45.626;6.850;2022-10-23T09:09:44;82305.13;;;16.28;38.86
64711;BME280;51139;45.626;6.850;2022-10-23T09:12:19;82296.53;;;16.17;36.00
64711;BME280;51139;45.626;6.850;2022-10-23T09:14:56;82298.00;;;16.09;36.92
64711;BME280;51139;45.626;6.850;2022-10-23T09:17:29;82298.38;;;15.81;36.35
64711;BME280;51139;45.626;6.850;2022-10-23T09:20:06;82305.81;;;15.83;35.80
64711;BME280;51139;45.626;6.850;2022-10-23T09:22:32;82318.06;;;15.64;37.39
64711;BME280;51139;45.626;6.850;2022-10-23T09:24:57;82313.44;;;15.43;37.37
64711;BME280;51139;45.626;6.850;2022-10-23T09:27:22;82308.38;;;15.25;37.57
64711;BME280;51139;45.626;6.850;2022-10-23T09:29:51;82317.44;;;15.10;37.16
64711;BME280;51139;45.626;6.850;2022-10-23T09:32:19;82305.75;;;14.94;38.17
64711;BME280;51139;45.626;6.850;2022-10-23T09:34:53;82331.44;;;14.89;38.26
64711;BME280;51139;45.626;6.850;2022-10-23T09:37:30;82313.28;;;14.97;37.92
64711;BME280;51139;45.626;6.850;2022-10-23T09:40:02;82311.22;;;14.96;36.57
64711;BME280;51139;45.626;6.850;2022-10-23T09:42:28;82317.63;;;15.02;36.48
64711;BME280;51139;45.626;6.850;2022-10-23T09:44:54;82320.84;;;15.01;38.30
64711;BME280;51139;45.626;6.850;2022-10-23T09:47:22;82312.69;;;15.09;36.55
64711;BME280;51139;45.626;6.850;2022-10-23T09:49:53;82326.03;;;15.09;36.61
64711;BME280;51139;45.626;6.850;2022-10-23T09:52:24;82331.22;;;15.07;36.99
64711;BME280;51139;45.626;6.850;2022-10-23T09:54:58;82329.28;;;14.97;37.24
64711;BME280;51139;45.626;6.850;2022-10-23T09:57:39;82346.44;;;14.94;37.92
64711;BME280;51139;45.626;6.850;2022-10-23T10:02:41;82328.09;;;15.10;36.51
64711;BME280;51139;45.626;6.850;2022-10-23T10:05:36;82335.47;;;15.22;36.31
64711;BME280;51139;45.626;6.850;2022-10-23T10:08:13;82335.69;;;15.14;37.55
64711;BME280;51139;45.626;6.850;2022-10-23T10:10:46;82352.88;;;15.23;36.47
64711;BME280;51139;45.626;6.850;2022-10-23T10:16:02;82348.69;;;15.20;36.07
64711;BME280;51139;45.626;6.850;2022-10-23T10:18:41;82346.59;;;15.40;35.42
64711;BME280;51139;45.626;6.850;2022-10-23T10:21:27;82368.25;;;15.34;36.74
64711;BME280;51139;45.626;6.850;2022-10-23T10:35:25;82367.72;;;15.04;38.61
64711;BME280;51139;45.626;6.850;2022-10-23T10:38:05;82369.13;;;15.05;37.47
64711;BME280;51139;45.626;6.850;2022-10-23T10:40:40;82382.81;;;15.21;38.78
64711;BME280;51139;45.626;6.850;2022-10-23T10:45:59;82379.44;;;15.21;37.84
64711;BME280;51139;45.626;6.850;2022-10-23T10:54:07;82373.22;;;15.28;38.05
64711;BME280;51139;45.626;6.850;2022-10-23T10:56:38;82372.44;;;15.37;37.08
64711;BME280;51139;45.626;6.850;2022-10-23T10:59:19;82372.66;;;15.29;38.12
64711;BME280;51139;45.626;6.850;2022-10-23T11:04:45;82360.50;;;15.38;38.07
64711;BME280;51139;45.626;6.850;2022-10-23T11:07:14;82362.63;;;15.40;39.23
64711;BME280;51139;45.626;6.850;2022-10-23T11:09:43;82370.25;;;15.55;37.23
64711;BME280;51139;45.626;6.850;2022-10-23T11:12:20;82362.44;;;15.48;36.70
64711;BME280;51139;45.626;6.850;2022-10-23T11:14:48;82366.22;;;15.44;36.72
64711;BME280;51139;45.626;6.850;2022-10-23T11:17:18;82359.06;;;15.47;37.11
64711;BME280;51139;45.626;6.850;2022-10-23T11:20:05;82361.97;;;15.51;36.88
64711;BME280;51139;45.626;6.850;2022-10-23T11:22:45;82356.88;;;15.55;36.13
64711;BME280;51139;45.626;6.850;2022-10-23T11:28:03;82360.31;;;15.68;38.13
64711;BME280;51139;45.626;6.850;2022-10-23T11:36:48;82347.47;;;15.54;37.07
64711;BME280;51139;45.626;6.850;2022-10-23T11:39:27;82338.03;;;15.63;37.03
64711;BME280;51139;45.626;6.850;2022-10-23T11:44:40;82330.91;;;15.56;38.51
64711;BME280;51139;45.626;6.850;2022-10-23T11:47:26;82326.38;;;15.58;37.27
64711;BME280;51139;45.626;6.850;2022-10-23T11:52:58;82334.13;;;15.54;36.63
64711;BME280;51139;45.626;6.850;2022-10-23T11:55:25;82322.31;;;15.57;35.71
64711;BME280;51139;45.626;6.850;2022-10-23T11:58:21;82322.31;;;15.57;37.28
64711;BME280;51139;45.626;6.850;2022-10-23T12:00:58;82308.47;;;15.49;37.08
64711;BME280;51139;45.626;6.850;2022-10-23T12:03:40;82307.13;;;15.38;37.85
64711;BME280;51139;45.626;6.850;2022-10-23T12:06:20;82287.75;;;15.38;37.16
64711;BME280;51139;45.626;6.850;2022-10-23T12:08:49;82295.97;;;15.52;36.87
64711;BME280;51139;45.626;6.850;2022-10-23T12:14:30;82306.00;;;15.41;37.58
64711;BME280;51139;45.626;6.850;2022-10-23T12:16:56;82297.53;;;15.45;38.03
64711;BME280;51139;45.626;6.850;2022-10-23T12:19:25;82292.25;;;15.57;37.54
64711;BME280;51139;45.626;6.850;2022-10-23T12:21:57;82282.75;;;15.66;37.43
64711;BME280;51139;45.626;6.850;2022-10-23T12:39:41;82252.34;;;15.59;36.33
64711;BME280;51139;45.626;6.850;2022-10-23T12:42:16;82252.25;;;15.69;37.39
64711;BME280;51139;45.626;6.850;2022-10-23T12:44:44;82253.63;;;15.70;38.09
64711;BME280;51139;45.626;6.850;2022-10-23T12:47:16;82258.53;;;15.73;38.20
64711;BME280;51139;45.626;6.850;2022-10-23T12:49:48;82260.03;;;15.76;38.43
64711;BME280;51139;45.626;6.850;2022-10-23T12:52:16;82256.19;;;15.68;38.56
64711;BME280;51139;45.626;6.850;2022-10-23T12:54:42;82258.03;;;15.65;38.39
64711;BME280;51139;45.626;6.850;2022-10-23T12:57:27;82262.34;;;15.70;38.30
64711;BME280;51139;45.626;6.850;2022-10-23T12:59:56;82256.91;;;15.68;38.69
64711;BME280;51139;45.626;6.850;2022-10-23T13:02:28;82272.53;;;15.62;38.12
64711;BME280;51139;45.626;6.850;2022-10-23T13:04:56;82271.22;;;15.51;38.61
64711;BME280;51139;45.626;6.850;2022-10-23T13:07:25;82257.19;;;15.51;38.26
64711;BME280;51139;45.626;6.850;2022-10-23T13:09:51;82265.88;;;15.51;37.75
64711;BME280;51139;45.626;6.850;2022-10-23T13:12:25;82253.88;;;15.40;38.82
64711;BME280;51139;45.626;6.850;2022-10-23T13:17:39;82239.25;;;15.41;39.19
64711;BME280;51139;45.626;6.850;2022-10-23T13:20:34;82241.06;;;15.49;39.22
64711;BME280;51139;45.626;6.850;2022-10-23T13:23:15;82235.25;;;15.52;39.68
64711;BME280;51139;45.626;6.850;2022-10-23T13:25:50;82237.00;;;15.48;39.25
64711;BME280;51139;45.626;6.850;2022-10-23T13:28:26;82241.94;;;15.41;39.48
64711;BME280;51139;45.626;6.850;2022-10-23T13:31:04;82235.19;;;15.40;39.87
64711;BME280;51139;45.626;6.850;2022-10-23T13:38:43;82218.06;;;15.10;41.05
64711;BME280;51139;45.626;6.850;2022-10-23T13:41:14;82221.66;;;15.14;40.89
64711;BME280;51139;45.626;6.850;2022-10-23T13:43:41;82222.81;;;15.11;40.11
64711;BME280;51139;45.626;6.850;2022-10-23T13:46:13;82219.94;;;15.19;39.98
64711;BME280;51139;45.626;6.850;2022-10-23T13:48:38;82213.47;;;15.22;40.42
64711;BME280;51139;45.626;6.850;2022-10-23T13:51:28;82210.63;;;15.08;40.61
64711;BME280;51139;45.626;6.850;2022-10-23T13:53:56;82204.13;;;15.11;40.30
64711;BME280;51139;45.626;6.850;2022-10-23T13:56:23;82203.88;;;15.07;39.17
64711;BME280;51139;45.626;6.850;2022-10-23T13:58:49;82212.25;;;15.13;39.24
64711;BME280;51139;45.626;6.850;2022-10-23T14:01:30;82217.28;;;15.19;39.98
64711;BME280;51139;45.626;6.850;2022-10-23T14:03:57;82216.44;;;15.16;41.21
64711;BME280;51139;45.626;6.850;2022-10-23T14:06:23;82210.63;;;15.08;40.78
64711;BME280;51139;45.626;6.850;2022-10-23T14:08:48;82222.69;;;15.09;40.78
64711;BME280;51139;45.626;6.850;2022-10-23T14:11:16;82218.88;;;14.91;41.43
64711;BME280;51139;45.626;6.850;2022-10-23T14:13:42;82226.31;;;14.92;40.63
64711;BME280;51139;45.626;6.850;2022-10-23T14:16:11;82227.31;;;14.87;41.89
64711;BME280;51139;45.626;6.850;2022-10-23T14:18:37;82217.28;;;14.76;41.38
64711;BME280;51139;45.626;6.850;2022-10-23T14:21:04;82219.56;;;14.91;40.89
64711;BME280;51139;45.626;6.850;2022-10-23T14:23:29;82211.16;;;14.73;42.11
64711;BME280;51139;45.626;6.850;2022-10-23T14:26:05;82218.00;;;14.76;40.96
64711;BME280;51139;45.626;6.850;2022-10-23T14:28:31;82225.03;;;14.93;39.21
64711;BME280;51139;45.626;6.850;2022-10-23T14:30:56;82218.56;;;14.96;40.56
64711;BME280;51139;45.626;6.850;2022-10-23T14:33:23;82226.00;;;14.76;40.67
64711;BME280;51139;45.626;6.850;2022-10-23T14:35:49;82218.06;;;14.88;39.58
64711;BME280;51139;45.626;6.850;2022-10-23T14:38:15;82205.34;;;14.98;39.40
64711;BME280;51139;45.626;6.850;2022-10-23T14:40:40;82214.25;;;14.91;40.00
64711;BME280;51139;45.626;6.850;2022-10-23T14:43:05;82221.06;;;14.82;39.29
64711;BME280;51139;45.626;6.850;2022-10-23T14:45:31;82213.41;;;15.10;38.82
64711;BME280;51139;45.626;6.850;2022-10-23T14:47:56;82203.38;;;14.99;39.50
64711;BME280;51139;45.626;6.850;2022-10-23T14:50:22;82205.44;;;14.88;39.54
64711;BME280;51139;45.626;6.850;2022-10-23T14:52:47;82211.03;;;14.71;41.38
64711;BME280;51139;45.626;6.850;2022-10-23T14:55:13;82202.50;;;14.84;38.71
64711;BME280;51139;45.626;6.850;2022-10-23T14:57:38;82201.50;;;14.90;38.76
64711;BME280;51139;45.626;6.850;2022-10-23T15:00:05;82205.34;;;14.77;39.87
64711;BME280;51139;45.626;6.850;2022-10-23T15:02:30;82196.84;;;14.68;39.96
64711;BME280;51139;45.626;6.850;2022-10-23T15:04:56;82190.56;;;14.64;41.04
64711;BME280;51139;45.626;6.850;2022-10-23T15:07:21;82196.03;;;14.66;39.78
64711;BME280;51139;45.626;6.850;2022-10-23T15:09:46;82200.66;;;14.65;39.76
64711;BME280;51139;45.626;6.850;2022-10-23T15:12:12;82192.63;;;14.75;40.08
64711;BME280;51139;45.626;6.850;2022-10-23T15:14:37;82189.81;;;14.73;40.39
64711;BME280;51139;45.626;6.850;2022-10-23T15:17:02;82203.31;;;14.65;39.73
64711;BME280;51139;45.626;6.850;2022-10-23T15:19:28;82207.13;;;14.62;40.24
64711;BME280;51139;45.626;6.850;2022-10-23T15:21:54;82202.56;;;14.74;39.57
64711;BME280;51139;45.626;6.850;2022-10-23T15:24:19;82198.38;;;14.71;39.19
64711;BME280;51139;45.626;6.850;2022-10-23T15:26:45;82203.28;;;14.75;39.17
64711;BME280;51139;45.626;6.850;2022-10-23T15:29:11;82218.88;;;14.91;38.30
